createdAt,value
2019-01-10T00:00:12.479Z,3.35
2019-01-10T00:01:12.464Z,3.18
2019-01-10T00:02:12.455Z,3.26
2019-01-10T00:03:12.441Z,3.37
2019-01-10T00:04:12.455Z,3.32
2019-01-10T00:05:12.422Z,3.44
2019-01-10T00:06:12.413Z,3.35
2019-01-10T00:07:12.398Z,3.35
2019-01-10T00:08:12.388Z,3.30
2019-01-10T00:09:12.399Z,3.30
2019-01-10T00:10:13.960Z,3.29
2019-01-10T00:11:12.353Z,3.32
2019-01-10T00:12:12.342Z,3.29
2019-01-10T00:13:12.332Z,3.32
2019-01-10T00:14:12.354Z,3.35
2019-01-10T00:15:12.309Z,3.32
2019-01-10T00:16:12.298Z,3.35
2019-01-10T00:17:12.287Z,3.41
2019-01-10T00:18:12.276Z,3.36
2019-01-10T00:19:12.265Z,3.32
2019-01-10T00:20:12.277Z,3.44
2019-01-10T00:21:12.242Z,3.42
2019-01-10T00:22:12.233Z,3.46
2019-01-10T00:23:12.247Z,3.54
2019-01-10T00:24:12.209Z,3.48
2019-01-10T00:25:12.234Z,3.46
2019-01-10T00:26:12.193Z,3.45
2019-01-10T00:27:12.175Z,3.49
2019-01-10T00:28:12.164Z,3.44
2019-01-10T00:29:12.152Z,3.44
2019-01-10T00:30:12.185Z,3.29
2019-01-10T00:31:12.130Z,3.30
2019-01-10T00:32:12.121Z,3.45
2019-01-10T00:33:12.112Z,3.49
2019-01-10T00:34:12.097Z,3.37
2019-01-10T00:35:12.110Z,3.51
2019-01-10T00:36:12.076Z,3.44
2019-01-10T00:37:12.062Z,3.32
2019-01-10T00:38:12.053Z,3.37
2019-01-10T00:39:12.040Z,3.36
2019-01-10T00:40:12.052Z,3.36
2019-01-10T00:41:12.020Z,3.42
2019-01-10T00:42:12.006Z,3.44
2019-01-10T00:43:11.995Z,3.49
2019-01-10T00:44:11.986Z,3.51
2019-01-10T00:45:11.975Z,3.51
2019-01-10T00:46:11.988Z,3.49
2019-01-10T00:47:11.952Z,3.51
2019-01-10T00:48:11.939Z,3.54
2019-01-10T00:49:11.928Z,3.48
2019-01-10T00:50:11.917Z,3.55
2019-01-10T00:51:11.928Z,3.52
2019-01-10T00:52:11.894Z,3.55
2019-01-10T00:53:11.887Z,3.56
2019-01-10T00:54:11.876Z,3.48
2019-01-10T00:55:11.860Z,3.48
2019-01-10T00:56:11.875Z,3.49
2019-01-10T00:57:11.839Z,3.52
2019-01-10T00:58:11.828Z,3.44
2019-01-10T00:59:11.816Z,3.54
2019-01-10T01:00:11.805Z,3.55
2019-01-10T01:01:11.815Z,3.52
2019-01-10T01:02:11.785Z,3.54
2019-01-10T01:03:11.774Z,3.55
2019-01-10T01:04:11.760Z,3.49
2019-01-10T01:05:11.749Z,3.45
2019-01-10T01:06:11.743Z,3.33
2019-01-10T01:07:11.748Z,3.30
2019-01-10T01:08:11.716Z,3.32
2019-01-10T01:09:11.704Z,3.26
2019-01-10T01:10:11.696Z,3.29
2019-01-10T01:11:11.684Z,3.23
2019-01-10T01:12:11.693Z,3.15
2019-01-10T01:13:11.659Z,3.18
2019-01-10T01:14:11.648Z,3.20
2019-01-10T01:15:11.637Z,3.15
2019-01-10T01:16:11.625Z,3.26
2019-01-10T01:17:11.637Z,3.27
2019-01-10T01:18:11.604Z,3.35
2019-01-10T01:19:11.592Z,3.23
2019-01-10T01:20:11.581Z,3.29
2019-01-10T01:21:11.573Z,3.18
2019-01-10T01:22:11.580Z,3.26
2019-01-10T01:23:11.547Z,3.33
2019-01-10T01:24:11.537Z,3.33
2019-01-10T01:25:11.607Z,3.33
2019-01-10T01:26:11.514Z,3.37
2019-01-10T01:27:11.524Z,3.32
2019-01-10T01:28:11.493Z,3.26
2019-01-10T01:29:11.483Z,3.20
2019-01-10T01:30:11.468Z,3.22
2019-01-10T01:31:11.458Z,3.22
2019-01-10T01:32:11.447Z,3.26
2019-01-10T01:33:11.460Z,3.18
2019-01-10T01:34:11.425Z,3.18
2019-01-10T01:35:11.413Z,3.20
2019-01-10T01:36:11.405Z,3.15
2019-01-10T01:37:11.391Z,3.25
2019-01-10T01:38:11.402Z,3.22
2019-01-10T01:39:11.368Z,3.27
2019-01-10T01:40:11.357Z,3.22
2019-01-10T01:41:11.346Z,3.20
2019-01-10T01:42:11.334Z,3.22
2019-01-10T01:43:11.345Z,3.22
2019-01-10T01:44:11.320Z,3.30
2019-01-10T01:45:11.302Z,3.23
2019-01-10T01:46:11.291Z,3.27
2019-01-10T01:47:11.279Z,3.32
2019-01-10T01:48:11.293Z,3.29
2019-01-10T01:49:11.257Z,3.32
2019-01-10T01:50:11.245Z,3.35
2019-01-10T01:51:11.233Z,3.29
2019-01-10T01:52:11.230Z,3.26
2019-01-10T01:53:11.234Z,3.44
2019-01-10T01:54:11.201Z,3.36
2019-01-10T01:55:11.189Z,3.36
2019-01-10T01:56:11.180Z,3.32
2019-01-10T01:57:19.746Z,3.26
2019-01-10T01:58:11.179Z,3.35
2019-01-10T01:59:11.147Z,3.36
2019-01-10T02:00:11.134Z,3.35
2019-01-10T02:01:11.125Z,3.27
2019-01-10T02:02:11.115Z,3.32
2019-01-10T02:03:11.144Z,3.23
2019-01-10T02:04:11.090Z,3.36
2019-01-10T02:05:11.078Z,3.30
2019-01-10T02:06:11.073Z,3.35
2019-01-10T02:07:11.055Z,3.32
2019-01-10T02:08:11.044Z,3.33
2019-01-10T02:09:11.059Z,3.32
2019-01-10T02:10:11.082Z,3.35
2019-01-10T02:11:11.014Z,3.35
2019-01-10T02:12:11.003Z,3.36
2019-01-10T02:13:20.321Z,3.35
2019-01-10T02:14:11.094Z,3.44
2019-01-10T02:15:10.966Z,3.48
2019-01-10T02:16:10.958Z,3.45
2019-01-10T02:17:10.950Z,3.48
2019-01-10T02:18:10.932Z,3.44
2019-01-10T02:19:10.946Z,3.46
2019-01-10T02:20:10.912Z,3.45
2019-01-10T02:21:10.899Z,3.44
2019-01-10T02:22:10.892Z,3.46
2019-01-10T02:23:10.880Z,3.48
2019-01-10T02:24:10.866Z,3.42
2019-01-10T02:25:10.878Z,3.42
2019-01-10T02:26:10.844Z,3.41
2019-01-10T02:27:10.839Z,3.46
2019-01-10T02:28:10.820Z,3.49
2019-01-10T02:29:10.811Z,3.42
2019-01-10T02:30:10.825Z,3.44
2019-01-10T02:31:10.789Z,3.26
2019-01-10T02:32:10.790Z,3.33
2019-01-10T02:33:10.765Z,3.35
2019-01-10T02:34:10.760Z,3.30
2019-01-10T02:35:10.770Z,3.29
2019-01-10T02:36:10.737Z,3.36
2019-01-10T02:37:10.729Z,3.32
2019-01-10T02:38:10.714Z,3.35
2019-01-10T02:39:10.703Z,3.27
2019-01-10T02:40:10.709Z,3.32
2019-01-10T02:41:10.675Z,3.33
2019-01-10T02:42:10.664Z,3.33
2019-01-10T02:43:10.655Z,3.30
2019-01-10T02:44:10.644Z,3.32
2019-01-10T02:45:10.631Z,3.17
2019-01-10T02:46:10.644Z,3.33
2019-01-10T02:47:10.612Z,3.18
2019-01-10T02:48:10.599Z,3.22
2019-01-10T02:49:10.586Z,3.17
2019-01-10T02:50:10.581Z,3.26
2019-01-10T02:51:10.591Z,3.11
2019-01-10T02:52:10.557Z,3.20
2019-01-10T02:53:10.548Z,3.18
2019-01-10T02:54:10.530Z,3.22
2019-01-10T02:55:10.532Z,3.27
2019-01-10T02:56:10.535Z,3.25
2019-01-10T02:57:10.499Z,3.33
2019-01-10T02:58:10.487Z,3.20
2019-01-10T02:59:10.480Z,3.17
2019-01-10T03:00:10.466Z,3.29
2019-01-10T03:01:10.486Z,3.23
2019-01-10T03:02:10.441Z,3.29
2019-01-10T03:03:10.428Z,3.35
2019-01-10T03:04:10.419Z,3.29
2019-01-10T03:05:10.413Z,3.32
2019-01-10T03:06:10.399Z,3.36
2019-01-10T03:07:10.408Z,3.29
2019-01-10T03:08:10.373Z,3.23
2019-01-10T03:09:10.365Z,3.26
2019-01-10T03:10:10.350Z,3.30
2019-01-10T03:11:10.341Z,3.32
2019-01-10T03:12:10.353Z,3.25
2019-01-10T03:13:10.320Z,3.25
2019-01-10T03:14:10.308Z,3.25
2019-01-10T03:15:10.300Z,3.23
2019-01-10T03:16:10.285Z,3.20
2019-01-10T03:17:10.299Z,3.17
2019-01-10T03:18:10.262Z,3.23
2019-01-10T03:19:10.253Z,3.18
2019-01-10T03:20:10.242Z,3.15
2019-01-10T03:21:10.232Z,3.15
2019-01-10T03:22:10.254Z,3.17
2019-01-10T03:23:10.206Z,3.11
2019-01-10T03:24:10.196Z,3.15
2019-01-10T03:25:10.185Z,3.14
2019-01-10T03:26:10.174Z,3.12
2019-01-10T03:27:19.063Z,3.14
2019-01-10T03:28:10.152Z,3.11
2019-01-10T03:29:11.574Z,3.20
2019-01-10T03:30:10.131Z,3.20
2019-01-10T03:32:49.416Z,3.15
2019-01-10T03:33:49.381Z,3.14
2019-01-10T03:34:49.370Z,3.20
2019-01-10T03:35:49.361Z,3.15
2019-01-10T03:36:49.346Z,3.22
2019-01-10T03:37:49.367Z,3.07
2019-01-10T03:38:49.325Z,3.11
2019-01-10T03:39:49.315Z,3.15
2019-01-10T03:40:49.304Z,3.05
2019-01-10T03:41:49.290Z,3.11
2019-01-10T03:42:57.712Z,3.14
2019-01-10T03:43:49.269Z,3.22
2019-01-10T03:44:49.267Z,3.15
2019-01-10T03:45:49.246Z,3.14
2019-01-10T03:46:49.236Z,3.12
2019-01-10T03:47:49.225Z,3.00
2019-01-10T03:48:49.236Z,2.97
2019-01-10T03:49:49.202Z,3.02
2019-01-10T03:50:49.191Z,3.02
2019-01-10T03:51:49.178Z,3.04
2019-01-10T03:52:49.169Z,3.02
2019-01-10T03:53:49.181Z,3.09
2019-01-10T03:54:49.149Z,3.12
2019-01-10T03:55:49.138Z,3.11
2019-01-10T03:56:57.649Z,3.20
2019-01-10T03:57:49.112Z,3.11
2019-01-10T03:58:49.128Z,3.15
2019-01-10T03:59:49.092Z,3.08
2019-01-10T04:00:49.079Z,3.04
2019-01-10T04:01:49.067Z,3.14
2019-01-10T04:02:49.059Z,3.08
2019-01-10T04:03:49.067Z,3.14
2019-01-10T04:04:57.589Z,3.05
2019-01-10T04:05:49.025Z,3.09
2019-01-10T04:06:49.014Z,3.04
2019-01-10T04:07:49.002Z,3.12
2019-01-10T04:08:49.042Z,2.99
2019-01-10T04:09:48.980Z,3.08
2019-01-10T04:10:48.968Z,3.15
2019-01-10T04:11:48.962Z,3.02
2019-01-10T04:12:57.242Z,3.11
2019-01-10T04:13:57.277Z,3.11
2019-01-10T04:14:48.927Z,3.02
2019-01-10T04:15:48.917Z,2.99
2019-01-10T04:16:48.900Z,3.05
2019-01-10T04:17:48.891Z,3.02
2019-01-10T04:18:48.887Z,3.07
2019-01-10T04:19:48.891Z,2.94
2019-01-10T04:20:59.122Z,2.94
2019-01-10T04:21:48.849Z,3.02
2019-01-10T04:22:48.838Z,2.99
2019-01-10T04:23:48.828Z,3.05
2019-01-10T04:24:48.835Z,3.05
2019-01-10T04:25:48.803Z,3.02
2019-01-10T04:26:48.791Z,2.97
2019-01-10T04:27:48.799Z,3.07
2019-01-10T04:28:48.776Z,2.90
2019-01-10T04:29:48.781Z,3.00
2019-01-10T04:30:48.747Z,2.93
2019-01-10T04:31:48.739Z,2.90
2019-01-10T04:32:48.722Z,2.89
2019-01-10T04:33:48.712Z,2.90
2019-01-10T04:34:48.723Z,2.91
2019-01-10T04:35:48.693Z,2.87
2019-01-10T04:36:48.682Z,2.89
2019-01-10T04:37:48.667Z,3.00
2019-01-10T04:38:48.663Z,2.90
2019-01-10T04:39:48.670Z,2.87
2019-01-10T04:40:48.635Z,2.93
2019-01-10T04:41:48.622Z,2.87
2019-01-10T04:42:48.613Z,2.91
2019-01-10T04:43:48.604Z,2.91
2019-01-10T04:44:48.611Z,2.93
2019-01-10T04:45:48.579Z,2.89
2019-01-10T04:46:48.567Z,2.99
2019-01-10T04:47:48.557Z,2.91
2019-01-10T04:48:48.545Z,2.93
2019-01-10T04:49:48.583Z,2.86
2019-01-10T04:50:48.522Z,2.87
2019-01-10T04:51:48.514Z,2.84
2019-01-10T04:52:48.501Z,2.81
2019-01-10T04:53:48.489Z,2.81
2019-01-10T04:54:48.477Z,2.82
2019-01-10T04:55:48.488Z,2.78
2019-01-10T04:56:48.455Z,2.82
2019-01-10T04:57:48.443Z,2.66
2019-01-10T04:58:48.433Z,2.76
2019-01-10T04:59:48.425Z,2.72
2019-01-10T05:00:48.432Z,2.79
2019-01-10T05:01:48.403Z,2.68
2019-01-10T05:02:48.387Z,2.71
2019-01-10T05:03:48.376Z,2.75
2019-01-10T05:04:48.368Z,2.76
2019-01-10T05:05:48.379Z,2.76
2019-01-10T05:06:48.351Z,2.75
2019-01-10T05:07:48.343Z,2.79
2019-01-10T05:08:48.321Z,2.81
2019-01-10T05:09:48.312Z,2.82
2019-01-10T05:10:48.320Z,2.91
2019-01-10T05:11:48.288Z,2.89
2019-01-10T05:12:48.278Z,2.91
2019-01-10T05:13:48.265Z,2.89
2019-01-10T05:14:48.256Z,2.86
2019-01-10T05:15:48.267Z,2.93
2019-01-10T05:16:48.231Z,2.89
2019-01-10T05:17:48.221Z,3.00
2019-01-10T05:18:48.212Z,2.97
2019-01-10T05:19:48.205Z,2.87
2019-01-10T05:20:48.218Z,2.97
2019-01-10T05:21:48.177Z,2.87
2019-01-10T05:22:48.167Z,2.87
2019-01-10T05:23:48.154Z,2.86
2019-01-10T05:24:48.143Z,2.76
2019-01-10T05:25:48.131Z,2.79
2019-01-10T05:26:48.142Z,2.73
2019-01-10T05:27:48.114Z,2.79
2019-01-10T05:28:48.098Z,2.76
2019-01-10T05:29:48.088Z,2.68
2019-01-10T05:30:48.079Z,2.65
2019-01-10T05:31:48.088Z,2.68
2019-01-10T05:32:48.058Z,2.55
2019-01-10T05:33:48.043Z,2.55
2019-01-10T05:34:48.031Z,2.55
2019-01-10T05:35:48.020Z,2.58
2019-01-10T05:36:48.032Z,2.53
2019-01-10T05:37:48.008Z,2.66
2019-01-10T05:38:47.995Z,2.54
2019-01-10T05:39:48.095Z,2.63
2019-01-10T05:40:47.968Z,2.65
2019-01-10T05:41:47.983Z,2.58
2019-01-10T05:42:57.532Z,2.57
2019-01-10T05:43:47.934Z,2.66
2019-01-10T05:44:47.924Z,2.66
2019-01-10T05:45:47.923Z,2.66
2019-01-10T05:46:48.685Z,2.69
2019-01-10T05:47:47.887Z,2.71
2019-01-10T05:48:47.877Z,2.66
2019-01-10T05:49:47.866Z,2.69
2019-01-10T05:50:47.858Z,2.71
2019-01-10T05:51:47.865Z,2.60
2019-01-10T05:52:47.839Z,2.58
2019-01-10T05:53:47.822Z,2.60
2019-01-10T05:54:47.810Z,2.55
2019-01-10T05:55:47.801Z,2.55
2019-01-10T05:56:47.839Z,2.61
2019-01-10T05:57:57.449Z,2.66
2019-01-10T05:58:47.765Z,2.57
2019-01-10T05:59:47.757Z,2.55
2019-01-10T06:00:47.742Z,2.63
2019-01-10T06:01:47.733Z,2.63
2019-01-10T06:02:47.742Z,2.68
2019-01-10T06:03:53.134Z,2.66
2019-01-10T06:04:47.701Z,2.65
2019-01-10T06:05:47.726Z,2.72
2019-01-10T06:06:47.676Z,2.73
2019-01-10T06:07:47.688Z,2.87
2019-01-10T06:08:47.653Z,2.78
2019-01-10T06:09:47.641Z,2.84
2019-01-10T06:10:55.936Z,2.82
2019-01-10T06:11:47.685Z,2.76
2019-01-10T06:12:47.632Z,2.75
2019-01-10T06:13:47.598Z,2.78
2019-01-10T06:14:47.712Z,2.72
2019-01-10T06:15:47.576Z,2.75
2019-01-10T06:16:47.566Z,2.81
2019-01-10T06:17:47.577Z,2.81
2019-01-10T06:18:47.545Z,2.82
2019-01-10T06:19:47.529Z,2.87
2019-01-10T06:20:47.520Z,2.89
2019-01-10T06:21:47.507Z,2.93
2019-01-10T06:22:47.519Z,2.78
2019-01-10T06:23:47.486Z,2.86
2019-01-10T06:24:55.837Z,2.76
2019-01-10T06:25:47.463Z,2.72
2019-01-10T06:26:47.452Z,2.61
2019-01-10T06:27:47.471Z,2.68
2019-01-10T06:28:47.436Z,2.68
2019-01-10T06:29:47.424Z,2.71
2019-01-10T06:30:47.419Z,2.66
2019-01-10T06:31:47.395Z,2.66
2019-01-10T06:32:47.390Z,2.69
2019-01-10T06:33:55.882Z,2.51
2019-01-10T06:34:47.367Z,2.57
2019-01-10T06:35:47.354Z,2.53
2019-01-10T06:36:47.341Z,2.53
2019-01-10T06:37:47.334Z,2.66
2019-01-10T06:38:47.346Z,2.54
2019-01-10T06:39:47.309Z,2.58
2019-01-10T06:40:47.338Z,2.65
2019-01-10T06:41:47.295Z,2.55
2019-01-10T06:42:47.272Z,2.57
2019-01-10T06:43:47.283Z,2.65
2019-01-10T06:44:47.253Z,2.57
2019-01-10T06:45:47.268Z,2.54
2019-01-10T06:46:47.231Z,2.61
2019-01-10T06:47:47.217Z,2.55
2019-01-10T06:48:47.227Z,2.55
2019-01-10T06:49:47.194Z,2.54
2019-01-10T06:50:47.432Z,2.55
2019-01-10T06:51:47.176Z,2.54
2019-01-10T06:52:55.498Z,2.55
2019-01-10T06:53:47.173Z,2.53
2019-01-10T06:54:56.302Z,2.45
2019-01-10T06:55:47.131Z,2.53
2019-01-10T06:56:47.118Z,2.48
2019-01-10T06:57:47.106Z,2.45
2019-01-10T06:58:47.115Z,2.51
2019-01-10T06:59:47.085Z,2.48
2019-01-10T07:00:47.071Z,2.42
2019-01-10T07:01:47.059Z,2.51
2019-01-10T07:02:47.049Z,2.43
2019-01-10T07:03:47.059Z,2.50
2019-01-10T07:04:47.030Z,2.45
2019-01-10T07:05:47.041Z,2.42
2019-01-10T07:06:47.004Z,2.48
2019-01-10T07:07:55.807Z,2.48
2019-01-10T07:08:47.007Z,2.58
2019-01-10T07:09:46.970Z,2.61
2019-01-10T07:10:46.962Z,2.58
2019-01-10T07:11:46.948Z,2.53
2019-01-10T07:12:46.943Z,2.71
2019-01-10T07:13:47.066Z,2.68
2019-01-10T07:14:53.551Z,2.58
2019-01-10T07:15:46.906Z,2.57
2019-01-10T07:16:53.448Z,2.65
2019-01-10T07:17:46.897Z,2.69
2019-01-10T07:18:46.876Z,2.57
2019-01-10T07:19:46.880Z,2.60
2019-01-10T07:20:46.848Z,2.48
2019-01-10T07:21:46.839Z,2.60
2019-01-10T07:22:46.826Z,2.53
2019-01-10T07:23:46.814Z,2.55
2019-01-10T07:24:46.827Z,2.53
2019-01-10T07:25:46.803Z,2.54
2019-01-10T07:26:46.786Z,2.60
2019-01-10T07:27:46.780Z,2.72
2019-01-10T07:28:46.762Z,2.66
2019-01-10T07:29:46.771Z,2.54
2019-01-10T07:30:46.745Z,2.72
2019-01-10T07:31:46.726Z,2.65
2019-01-10T07:32:46.714Z,2.63
2019-01-10T07:33:46.704Z,2.63
2019-01-10T07:34:46.723Z,2.63
2019-01-10T07:35:46.681Z,2.68
2019-01-10T07:36:46.669Z,2.73
2019-01-10T07:37:46.658Z,2.75
2019-01-10T07:38:46.649Z,2.81
2019-01-10T07:39:46.716Z,2.65
2019-01-10T07:40:46.627Z,2.71
2019-01-10T07:41:46.614Z,2.65
2019-01-10T07:42:46.607Z,2.58
2019-01-10T07:43:46.594Z,2.58
2019-01-10T07:44:46.612Z,2.54
2019-01-10T07:45:46.570Z,2.66
2019-01-10T07:46:46.558Z,2.57
2019-01-10T07:47:46.546Z,2.72
2019-01-10T07:48:46.535Z,2.73
2019-01-10T07:49:46.828Z,2.66
2019-01-10T07:50:46.517Z,2.65
2019-01-10T07:51:46.501Z,2.65
2019-01-10T07:52:46.492Z,2.63
2019-01-10T07:53:46.483Z,2.71
2019-01-10T07:54:46.468Z,2.68
2019-01-10T07:55:46.479Z,2.65
2019-01-10T07:56:46.448Z,2.66
2019-01-10T07:57:46.436Z,2.55
2019-01-10T07:58:46.424Z,2.57
2019-01-10T07:59:46.413Z,2.69
2019-01-10T08:00:46.425Z,2.65
2019-01-10T08:01:46.399Z,2.57
2019-01-10T08:02:46.388Z,2.65
2019-01-10T08:03:46.367Z,2.68
2019-01-10T08:04:46.361Z,2.48
2019-01-10T08:05:46.384Z,2.60
2019-01-10T08:06:46.336Z,2.57
2019-01-10T08:07:46.327Z,2.58
2019-01-10T08:08:46.318Z,2.66
2019-01-10T08:09:46.302Z,2.60
2019-01-10T08:10:46.313Z,2.57
2019-01-10T08:11:46.279Z,2.61
2019-01-10T08:12:46.267Z,2.63
2019-01-10T08:13:46.256Z,2.68
2019-01-10T08:14:46.247Z,2.63
2019-01-10T08:15:46.262Z,2.63
2019-01-10T08:16:46.222Z,2.65
2019-01-10T08:17:46.215Z,2.65
2019-01-10T08:18:46.201Z,2.69
2019-01-10T08:19:46.189Z,2.65
2019-01-10T08:20:46.226Z,2.66
2019-01-10T08:21:46.640Z,2.63
2019-01-10T08:22:46.155Z,2.65
2019-01-10T08:23:46.146Z,2.66
2019-01-10T08:24:46.136Z,2.68
2019-01-10T08:25:46.144Z,2.66
2019-01-10T08:26:46.110Z,2.63
2019-01-10T08:27:46.101Z,2.75
2019-01-10T08:28:46.089Z,2.79
2019-01-10T08:29:46.085Z,2.87
2019-01-10T08:30:46.109Z,2.81
2019-01-10T08:31:46.059Z,2.82
2019-01-10T08:32:46.047Z,2.79
2019-01-10T08:33:46.033Z,2.72
2019-01-10T08:34:46.028Z,2.79
2019-01-10T08:35:46.014Z,2.76
2019-01-10T08:36:46.021Z,2.76
2019-01-10T08:37:45.991Z,2.73
2019-01-10T08:38:45.978Z,2.68
2019-01-10T08:39:45.967Z,2.76
2019-01-10T08:40:45.955Z,2.68
2019-01-10T08:41:45.966Z,2.76
2019-01-10T08:42:45.938Z,2.76
2019-01-10T08:43:45.923Z,2.82
2019-01-10T08:44:45.917Z,2.90
2019-01-10T08:45:45.902Z,2.73
2019-01-10T08:46:45.911Z,2.79
2019-01-10T08:47:45.880Z,2.86
2019-01-10T08:48:45.870Z,2.87
2019-01-10T08:49:45.855Z,2.79
2019-01-10T08:50:45.844Z,2.79
2019-01-10T08:51:45.859Z,2.79
2019-01-10T08:52:45.824Z,2.84
2019-01-10T08:53:53.870Z,2.79
2019-01-10T08:54:45.808Z,2.89
2019-01-10T08:55:45.793Z,2.81
2019-01-10T08:56:45.800Z,2.99
2019-01-10T08:57:45.767Z,2.94
2019-01-10T08:58:45.758Z,2.91
2019-01-10T08:59:45.747Z,2.89
2019-01-10T09:00:45.735Z,2.94
2019-01-10T09:01:45.762Z,2.91
2019-01-10T09:02:45.711Z,2.96
2019-01-10T09:03:45.702Z,2.87
2019-01-10T09:04:45.689Z,2.79
2019-01-10T09:05:45.680Z,2.81
2019-01-10T09:06:45.667Z,2.90
2019-01-10T09:07:45.723Z,2.84
2019-01-10T09:08:45.643Z,2.86
2019-01-10T09:09:45.633Z,2.82
2019-01-10T09:10:45.622Z,2.84
2019-01-10T09:11:45.630Z,2.93
2019-01-10T09:12:45.628Z,2.91
2019-01-10T09:13:45.596Z,2.99
2019-01-10T09:14:45.575Z,2.87
2019-01-10T09:15:45.568Z,2.89
2019-01-10T09:16:45.556Z,2.90
2019-01-10T09:17:45.565Z,2.97
2019-01-10T09:18:45.532Z,2.99
2019-01-10T09:19:45.520Z,2.90
2019-01-10T09:20:45.512Z,2.91
2019-01-10T09:21:45.501Z,3.00
2019-01-10T09:22:45.513Z,3.04
2019-01-10T09:23:45.475Z,2.96
2019-01-10T09:24:45.465Z,2.99
2019-01-10T09:25:45.457Z,3.05
2019-01-10T09:26:45.443Z,2.97
2019-01-10T09:27:45.453Z,2.99
2019-01-10T09:28:45.429Z,3.05
2019-01-10T09:29:45.410Z,3.15
2019-01-10T09:30:45.398Z,3.08
2019-01-10T09:31:45.387Z,3.20
2019-01-10T09:32:45.399Z,3.09
2019-01-10T09:33:45.366Z,3.08
2019-01-10T09:34:45.353Z,3.07
2019-01-10T09:35:45.344Z,3.04
2019-01-10T09:36:45.330Z,3.11
2019-01-10T09:37:45.345Z,3.09
2019-01-10T09:38:45.311Z,3.12
2019-01-10T09:39:45.298Z,3.20
2019-01-10T09:40:45.287Z,3.09
2019-01-10T09:41:45.276Z,3.17
2019-01-10T09:42:45.303Z,3.07
2019-01-10T09:43:45.252Z,3.08
2019-01-10T09:44:45.241Z,3.04
2019-01-10T09:45:45.231Z,3.08
2019-01-10T09:46:45.233Z,3.12
2019-01-10T09:47:45.208Z,3.04
2019-01-10T09:48:45.218Z,3.11
2019-01-10T09:49:45.187Z,3.08
2019-01-10T09:50:45.175Z,3.08
2019-01-10T09:51:45.165Z,3.09
2019-01-10T09:52:45.153Z,3.05
2019-01-10T09:53:45.167Z,3.12
2019-01-10T09:54:45.133Z,3.15
2019-01-10T09:55:45.119Z,3.09
2019-01-10T09:56:45.109Z,3.11
2019-01-10T09:57:45.101Z,3.14
2019-01-10T09:58:45.109Z,3.17
2019-01-10T09:59:45.074Z,3.12
2019-01-10T10:00:45.064Z,3.11
2019-01-10T10:01:45.053Z,3.11
2019-01-10T10:02:45.041Z,3.09
2019-01-10T10:03:45.084Z,3.18
2019-01-10T10:04:45.022Z,3.17
2019-01-10T10:05:45.007Z,3.26
2019-01-10T10:06:44.996Z,3.37
2019-01-10T10:07:44.987Z,3.30
2019-01-10T10:08:45.000Z,3.44
2019-01-10T10:09:44.973Z,3.44
2019-01-10T10:10:44.952Z,3.48
2019-01-10T10:11:44.944Z,3.54
2019-01-10T10:12:44.931Z,3.59
2019-01-10T10:13:45.062Z,3.67
2019-01-10T10:14:44.908Z,3.74
2019-01-10T10:15:52.299Z,3.63
2019-01-10T10:16:44.890Z,3.69
2019-01-10T10:17:44.875Z,3.73
2019-01-10T10:18:44.863Z,3.72
2019-01-10T10:19:44.872Z,3.73
2019-01-10T10:20:44.846Z,3.70
2019-01-10T10:21:44.840Z,3.69
2019-01-10T10:22:44.819Z,3.64
2019-01-10T10:23:44.807Z,3.70
2019-01-10T10:24:44.819Z,3.70
2019-01-10T10:25:44.790Z,3.64
2019-01-10T10:26:44.774Z,3.74
2019-01-10T10:27:44.765Z,3.72
2019-01-10T10:28:44.753Z,3.70
2019-01-10T10:29:44.769Z,3.66
2019-01-10T10:30:44.728Z,3.80
2019-01-10T10:31:44.721Z,3.74
2019-01-10T10:32:44.706Z,3.84
2019-01-10T10:33:44.695Z,3.84
2019-01-10T10:34:44.704Z,3.90
2019-01-10T10:35:44.672Z,3.87
2019-01-10T10:36:44.661Z,3.84
2019-01-10T10:37:44.651Z,3.91
2019-01-10T10:38:44.642Z,3.88
2019-01-10T10:39:44.654Z,4.00
2019-01-10T10:40:44.617Z,3.91
2019-01-10T10:41:44.607Z,3.94
2019-01-10T10:42:44.595Z,4.03
2019-01-10T10:43:44.585Z,3.98
2019-01-10T10:44:44.598Z,3.96
2019-01-10T10:45:44.562Z,4.02
2019-01-10T10:46:44.552Z,3.94
2019-01-10T10:47:44.541Z,4.02
2019-01-10T10:48:44.532Z,4.03
2019-01-10T10:49:44.555Z,3.92
2019-01-10T10:50:44.506Z,3.91
2019-01-10T10:51:44.495Z,3.91
2019-01-10T10:52:44.487Z,3.98
2019-01-10T10:53:44.475Z,3.98
2019-01-10T10:54:44.463Z,3.98
2019-01-10T10:55:44.474Z,4.05
2019-01-10T10:56:44.446Z,4.10
2019-01-10T10:57:44.429Z,4.13
2019-01-10T10:58:44.421Z,4.13
2019-01-10T10:59:44.409Z,4.10
2019-01-10T11:00:44.423Z,4.02
2019-01-10T11:01:44.384Z,3.98
2019-01-10T11:02:44.377Z,3.99
2019-01-10T11:03:44.366Z,4.00
2019-01-10T11:04:44.352Z,3.88
2019-01-10T11:05:44.383Z,3.96
2019-01-10T11:06:44.329Z,3.91
2019-01-10T11:07:44.321Z,3.92
2019-01-10T11:08:44.663Z,3.98
2019-01-10T11:09:44.296Z,3.94
2019-01-10T11:10:44.285Z,4.00
2019-01-10T11:11:44.294Z,3.98
2019-01-10T11:12:44.264Z,4.06
2019-01-10T11:13:44.253Z,4.03
2019-01-10T11:14:48.207Z,3.98
2019-01-10T11:15:44.232Z,4.02
2019-01-10T11:16:44.240Z,4.08
2019-01-10T11:17:44.211Z,4.09
2019-01-10T11:18:44.207Z,4.00
2019-01-10T11:19:44.188Z,4.05
2019-01-10T11:20:44.175Z,4.02
2019-01-10T11:21:44.188Z,4.12
2019-01-10T11:22:44.154Z,4.06
2019-01-10T11:23:44.143Z,3.99
2019-01-10T11:24:44.138Z,3.98
2019-01-10T11:25:44.120Z,3.94
2019-01-10T11:26:44.133Z,3.92
2019-01-10T11:27:44.097Z,4.02
2019-01-10T11:28:44.093Z,4.02
2019-01-10T11:29:44.078Z,4.02
2019-01-10T11:30:44.067Z,3.99
2019-01-10T11:31:44.082Z,4.12
2019-01-10T11:32:44.042Z,4.24
2019-01-10T11:33:44.030Z,4.26
2019-01-10T11:34:44.019Z,4.24
2019-01-10T11:35:44.008Z,4.30
2019-01-10T11:36:44.020Z,4.36
2019-01-10T11:37:43.986Z,4.43
2019-01-10T11:38:45.289Z,4.39
2019-01-10T11:39:43.967Z,4.45
2019-01-10T11:40:43.954Z,4.41
2019-01-10T11:41:43.967Z,4.41
2019-01-10T11:42:43.930Z,4.34
2019-01-10T11:43:43.920Z,4.45
2019-01-10T11:44:43.911Z,4.48
2019-01-10T11:45:43.897Z,4.51
2019-01-10T11:46:43.922Z,4.54
2019-01-10T11:47:43.879Z,4.53
2019-01-10T11:48:43.865Z,4.59
2019-01-10T11:49:43.854Z,4.63
2019-01-10T11:50:43.843Z,4.63
2019-01-10T11:51:43.836Z,4.67
2019-01-10T11:52:43.842Z,4.61
2019-01-10T11:53:43.808Z,4.61
2019-01-10T11:54:43.799Z,4.56
2019-01-10T11:55:43.786Z,4.46
2019-01-10T11:56:43.775Z,4.31
2019-01-10T11:57:43.788Z,4.38
2019-01-10T11:58:43.754Z,4.36
2019-01-10T11:59:43.742Z,4.27
2019-01-10T12:00:43.731Z,4.38
2019-01-10T12:01:43.719Z,4.38
2019-01-10T12:02:43.733Z,4.64
2019-01-10T12:03:43.709Z,4.66
2019-01-10T12:04:43.687Z,4.83
2019-01-10T12:05:47.857Z,4.91
2019-01-10T12:06:43.668Z,4.88
2019-01-10T12:07:43.678Z,4.91
2019-01-10T12:08:43.642Z,4.75
2019-01-10T12:09:43.631Z,4.74
2019-01-10T12:10:43.622Z,4.97
2019-01-10T12:11:43.610Z,4.96
2019-01-10T12:12:43.638Z,5.16
2019-01-10T12:13:43.586Z,5.25
2019-01-10T12:14:43.575Z,5.34
2019-01-10T12:15:43.571Z,5.37
2019-01-10T12:16:43.553Z,5.39
2019-01-10T12:17:43.542Z,5.29
2019-01-10T12:18:43.555Z,5.15
2019-01-10T12:19:43.520Z,4.97
2019-01-10T12:20:43.511Z,4.89
2019-01-10T12:21:43.500Z,4.93
2019-01-10T12:22:43.487Z,4.83
2019-01-10T12:23:43.506Z,4.82
2019-01-10T12:24:43.470Z,4.74
2019-01-10T12:25:43.453Z,4.88
2019-01-10T12:26:43.442Z,4.93
2019-01-10T12:27:43.434Z,4.93
2019-01-10T12:28:43.444Z,5.03
2019-01-10T12:29:43.410Z,5.04
2019-01-10T12:30:43.397Z,5.12
2019-01-10T12:31:43.387Z,5.12
2019-01-10T12:32:43.377Z,5.29
2019-01-10T12:33:43.388Z,5.22
2019-01-10T12:34:43.356Z,5.36
2019-01-10T12:35:43.343Z,5.33
2019-01-10T12:36:43.331Z,5.33
2019-01-10T12:37:43.320Z,5.27
2019-01-10T12:38:43.331Z,5.14
2019-01-10T12:39:43.301Z,5.25
2019-01-10T12:40:43.287Z,5.16
2019-01-10T12:41:43.276Z,5.15
2019-01-10T12:42:43.264Z,5.07
2019-01-10T12:43:43.275Z,5.07
2019-01-10T12:44:43.243Z,4.97
2019-01-10T12:45:43.233Z,4.96
2019-01-10T12:46:43.220Z,5.00
2019-01-10T12:47:43.209Z,5.00
2019-01-10T12:48:43.239Z,4.97
2019-01-10T12:49:43.188Z,4.89
2019-01-10T12:50:43.186Z,4.88
2019-01-10T12:51:43.166Z,4.93
2019-01-10T12:52:43.155Z,5.03
2019-01-10T12:53:43.179Z,4.94
2019-01-10T12:54:43.132Z,4.97
2019-01-10T12:55:43.121Z,4.98
2019-01-10T12:56:43.109Z,4.86
2019-01-10T12:57:43.100Z,4.83
2019-01-10T12:58:43.089Z,4.79
2019-01-10T12:59:43.116Z,4.97
2019-01-10T13:00:43.069Z,4.85
2019-01-10T13:01:43.053Z,4.69
2019-01-10T13:02:43.043Z,4.64
2019-01-10T13:03:43.033Z,4.69
2019-01-10T13:04:43.046Z,4.75
2019-01-10T13:05:43.010Z,4.72
2019-01-10T13:06:43.007Z,4.71
2019-01-10T13:07:42.989Z,4.69
2019-01-10T13:08:42.977Z,4.67
2019-01-10T13:09:42.986Z,4.56
2019-01-10T13:10:42.977Z,4.51
2019-01-10T13:11:42.944Z,4.53
2019-01-10T13:12:42.931Z,4.35
2019-01-10T13:13:44.603Z,4.39
2019-01-10T13:14:42.964Z,4.42
2019-01-10T13:15:42.899Z,4.45
2019-01-10T13:16:47.019Z,4.42
2019-01-10T13:17:42.878Z,4.51
2019-01-10T13:18:42.866Z,4.60
2019-01-10T13:19:42.877Z,4.59